Time;durP1;ratioP1;P1;durP2;ratioP2;P2;SDS_P1;SDS_P2;PMS_P1;PMS_P2;Temp;Humidity;BMP_temperature;BMP_pressure;BME280_temperature;BME280_humidity;BME280_pressure;Samples;Min_cycle;Max_cycle;Signal;HPM_P1;HPM_P2
2023/04/25 00:00:18;;;;;;;4.23;2.50;;;;;;;11.11;59.26;100372.34;4973403;28;97464;-50
2023/04/25 00:02:43;;;;;;;3.93;2.20;;;;;;;11.11;59.48;100363.34;4975713;28;98623;-49
2023/04/25 00:05:08;;;;;;;10.27;2.80;;;;;;;11.11;59.41;100364.09;4975831;28;97593;-49
2023/04/25 00:07:34;;;;;;;3.10;2.27;;;;;;;11.09;59.34;100368.59;4975504;28;97597;-50
2023/04/25 00:10:00;;;;;;;2.87;1.90;;;;;;;11.10;59.48;100354.31;4978871;28;97100;-50
2023/04/25 00:12:28;;;;;;;3.50;2.17;;;;;;;11.07;59.38;100363.56;4975302;28;96773;-48
2023/04/25 00:14:53;;;;;;;5.97;2.60;;;;;;;11.08;59.46;100367.84;4976183;28;96773;-50
2023/04/25 00:17:19;;;;;;;5.80;2.30;;;;;;;11.05;59.41;100368.84;4975902;28;97331;-50
2023/04/25 00:19:46;;;;;;;4.83;2.37;;;;;;;11.06;59.46;100372.34;4974069;28;97438;-48
2023/04/25 00:22:11;;;;;;;4.57;2.70;;;;;;;11.05;59.61;100366.09;4977272;28;96818;-50
2023/04/25 00:24:37;;;;;;;8.33;3.20;;;;;;;11.05;59.60;100373.63;4975889;28;96789;-50
2023/04/25 00:27:02;;;;;;;3.90;2.43;;;;;;;11.01;59.42;100373.09;4975843;28;97051;-50
2023/04/25 00:29:28;;;;;;;6.80;2.87;;;;;;;11.03;59.45;100370.63;4976268;28;97192;-48
2023/04/25 00:31:53;;;;;;;4.20;2.53;;;;;;;11.03;59.66;100376.84;4975127;28;97164;-50
2023/04/25 00:34:19;;;;;;;2.40;2.20;;;;;;;11.04;59.74;100383.09;4974937;28;97241;-50
2023/04/25 00:36:44;;;;;;;5.50;2.83;;;;;;;11.05;59.65;100377.09;4975067;28;98544;-50
2023/04/25 00:39:10;;;;;;;6.20;2.83;;;;;;;11.07;59.47;100374.59;4974737;28;96951;-50
2023/04/25 00:41:35;;;;;;;4.03;2.37;;;;;;;11.06;59.48;100377.84;4974472;28;97185;-50
2023/04/25 00:44:02;;;;;;;4.73;2.20;;;;;;;11.05;59.61;100373.63;4975378;28;97385;-47
2023/04/25 00:46:28;;;;;;;5.83;2.90;;;;;;;11.04;59.64;100372.84;4976753;28;97992;-50
2023/04/25 00:48:53;;;;;;;7.80;2.97;;;;;;;11.07;59.44;100374.59;4975780;28;97032;-50
2023/04/25 00:51:21;;;;;;;6.77;3.00;;;;;;;11.05;59.58;100373.63;4976528;28;96983;-49
2023/04/25 00:53:49;;;;;;;3.03;2.40;;;;;;;11.04;59.45;100372.09;4975430;28;97580;-50
2023/04/25 00:56:15;;;;;;;3.70;2.87;;;;;;;11.04;59.58;100366.59;4976085;28;96958;-50
2023/04/25 00:58:42;;;;;;;9.80;3.90;;;;;;;11.02;59.67;100374.59;4975574;28;97573;-47
2023/04/25 01:01:08;;;;;;;3.00;2.70;;;;;;;11.00;59.53;100377.09;4976172;28;97121;-48
2023/04/25 01:03:35;;;;;;;5.60;2.90;;;;;;;11.03;59.70;100373.38;4976284;28;97067;-48
2023/04/25 01:06:01;;;;;;;5.50;2.90;;;;;;;11.03;59.68;100367.84;4976396;28;99679;-50
2023/04/25 01:08:27;;;;;;;3.33;2.53;;;;;;;11.05;59.64;100376.38;4975049;28;97010;-50
2023/04/25 01:10:52;;;;;;;3.77;2.80;;;;;;;11.03;59.72;100365.84;4976932;28;97081;-50
2023/04/25 01:13:18;;;;;;;10.83;3.90;;;;;;;11.02;59.71;100377.34;4974296;28;97218;-50
2023/04/25 01:15:44;;;;;;;6.57;3.00;;;;;;;11.01;59.78;100370.34;4974810;28;97261;-49
2023/04/25 01:18:09;;;;;;;6.13;2.87;;;;;;;11.01;59.90;100373.09;4973407;28;96912;-49
2023/04/25 01:20:38;;;;;;;3.47;3.00;;;;;;;11.02;60.12;100366.34;4972485;28;96780;-49
2023/04/25 01:23:03;;;;;;;5.60;2.57;;;;;;;10.98;60.03;100369.38;4974562;28;96687;-49
2023/04/25 01:25:30;;;;;;;3.77;3.10;;;;;;;11.01;60.03;100368.34;4975025;28;97187;-50
2023/04/25 01:27:57;;;;;;;4.37;3.03;;;;;;;11.03;59.99;100374.09;4974506;28;98429;-50
2023/04/25 01:30:23;;;;;;;3.80;2.70;;;;;;;11.01;60.12;100371.09;4974430;28;97032;-50
2023/04/25 01:32:49;;;;;;;10.00;3.33;;;;;;;11.04;60.02;100375.59;4979122;28;97258;-48
2023/04/25 01:35:15;;;;;;;4.93;3.07;;;;;;;11.05;59.82;100379.13;4974040;28;97097;-49
2023/04/25 01:37:41;;;;;;;6.37;3.40;;;;;;;11.05;60.01;100385.34;4974085;28;98442;-49
2023/04/25 01:40:09;;;;;;;4.80;3.27;;;;;;;11.05;59.96;100395.63;4974789;28;96957;-48
2023/04/25 01:42:36;;;;;;;7.33;2.93;;;;;;;11.05;60.13;100381.88;4973465;28;97236;-49
2023/04/25 01:45:02;;;;;;;7.60;3.43;;;;;;;11.02;60.37;100385.63;4973324;28;97250;-49
2023/04/25 01:47:27;;;;;;;9.07;3.30;;;;;;;10.98;60.43;100404.38;4975057;28;96973;-50
2023/04/25 01:49:53;;;;;;;5.07;3.07;;;;;;;10.95;60.43;100394.38;4974508;28;96939;-49
2023/04/25 01:52:18;;;;;;;5.93;3.40;;;;;;;10.94;60.55;100392.88;4973902;28;97136;-48
2023/04/25 01:54:44;;;;;;;6.10;3.00;;;;;;;10.89;60.59;100399.13;4976814;28;99529;-49
2023/04/25 01:57:11;;;;;;;4.50;2.47;;;;;;;10.84;60.63;100413.63;4974224;28;97186;-48
2023/04/25 01:59:37;;;;;;;6.40;2.63;;;;;;;10.80;60.63;100419.38;4976111;28;97078;-50
2023/04/25 02:02:05;;;;;;;4.53;2.20;;;;;;;10.79;60.73;100420.63;4976236;28;97054;-49
2023/04/25 02:04:30;;;;;;;3.10;2.10;;;;;;;10.77;60.74;100416.91;4977326;28;97194;-50
2023/04/25 02:06:56;;;;;;;7.03;2.67;;;;;;;10.77;60.68;100427.91;4975222;28;97582;-49
2023/04/25 02:09:22;;;;;;;7.63;2.77;;;;;;;10.70;60.46;100420.13;4976395;28;96822;-49
2023/04/25 02:11:47;;;;;;;4.13;1.70;;;;;;;10.65;60.57;100423.63;4974576;28;97045;-49
2023/04/25 02:14:13;;;;;;;3.93;2.33;;;;;;;10.55;60.70;100434.84;4972753;28;98400;-49
2023/04/25 02:16:39;;;;;;;9.07;2.30;;;;;;;10.53;60.82;100442.09;4975277;28;97531;-49
2023/04/25 02:19:05;;;;;;;6.40;1.60;;;;;;;10.45;60.73;100439.09;4975195;28;97110;-49
2023/04/25 02:21:31;;;;;;;6.30;1.83;;;;;;;10.43;60.89;100436.09;4976233;28;97075;-50
2023/04/25 02:23:56;;;;;;;5.60;2.03;;;;;;;10.47;60.70;100433.09;4978139;28;97457;-49
2023/04/25 02:26:23;;;;;;;4.80;2.10;;;;;;;10.44;60.76;100439.59;4974986;28;96751;-49
2023/04/25 02:28:49;;;;;;;6.50;2.13;;;;;;;10.47;60.97;100442.09;4976736;28;97030;-48
2023/04/25 02:31:15;;;;;;;5.77;1.90;;;;;;;10.49;60.82;100439.59;4974734;28;96928;-48
2023/04/25 02:33:40;;;;;;;7.80;1.77;;;;;;;10.50;60.93;100438.34;4972122;28;96803;-50
2023/04/25 02:36:06;;;;;;;4.33;2.37;;;;;;;10.51;60.85;100442.59;4974882;28;112449;-50
2023/04/25 02:38:31;;;;;;;6.60;2.77;;;;;;;10.52;60.85;100444.13;4974427;28;97303;-49
2023/04/25 02:40:57;;;;;;;6.97;2.07;;;;;;;10.53;60.73;100442.84;4974608;28;96840;-49
2023/04/25 02:43:22;;;;;;;9.40;2.10;;;;;;;10.52;60.64;100446.09;4974181;28;97154;-49
2023/04/25 02:45:47;;;;;;;13.67;2.30;;;;;;;10.51;60.68;100450.84;4975959;28;97145;-49
2023/04/25 02:48:13;;;;;;;8.53;1.70;;;;;;;10.48;60.68;100440.81;4974546;28;97120;-50
2023/04/25 02:50:38;;;;;;;4.93;1.77;;;;;;;10.48;60.59;100443.56;4974688;28;97043;-50
2023/04/25 02:53:03;;;;;;;8.30;2.40;;;;;;;10.45;60.56;100443.84;4975084;28;96875;-49
2023/04/25 02:55:29;;;;;;;6.13;1.90;;;;;;;10.40;60.46;100450.81;4973079;28;97911;-47
2023/04/25 02:57:55;;;;;;;5.33;2.07;;;;;;;10.37;60.54;100451.06;4975462;28;96965;-49
2023/04/25 03:00:22;;;;;;;8.70;2.53;;;;;;;10.35;60.54;100445.31;4976045;28;96932;-49
2023/04/25 03:02:47;;;;;;;5.53;1.87;;;;;;;10.31;60.59;100453.78;4972499;28;96720;-47
2023/04/25 03:05:12;;;;;;;5.60;2.10;;;;;;;10.28;60.57;100445.78;4973036;28;100479;-49
2023/04/25 03:07:39;;;;;;;7.10;2.47;;;;;;;10.26;60.65;100449.03;4977103;28;97840;-49
2023/04/25 03:10:06;;;;;;;2.73;1.67;;;;;;;10.25;60.51;100439.28;4973205;28;97004;-49
2023/04/25 03:12:31;;;;;;;6.13;2.70;;;;;;;10.22;60.61;100443.00;4973142;28;99319;-49
2023/04/25 03:14:57;;;;;;;6.53;2.30;;;;;;;10.21;60.52;100438.00;4978613;28;99377;-50
2023/04/25 03:17:22;;;;;;;10.80;2.20;;;;;;;10.19;60.57;100437.75;4976277;28;101126;-49
2023/04/25 03:19:48;;;;;;;6.30;2.00;;;;;;;10.15;60.41;100440.75;4973968;28;97026;-50
2023/04/25 03:22:13;;;;;;;8.30;2.40;;;;;;;10.10;60.60;100446.94;4972304;28;100587;-48
2023/04/25 03:24:38;;;;;;;8.80;2.30;;;;;;;10.08;60.70;100446.69;4973361;28;97294;-50
2023/04/25 03:27:04;;;;;;;7.67;1.90;;;;;;;10.07;60.82;100447.19;4974568;28;97368;-49
2023/04/25 03:29:29;;;;;;;6.70;1.97;;;;;;;10.05;60.64;100455.91;4974957;28;96919;-48
2023/04/25 03:31:55;;;;;;;7.93;2.70;;;;;;;10.05;60.70;100455.91;4974519;28;97302;-49
2023/04/25 03:34:23;;;;;;;6.80;2.60;;;;;;;10.04;60.67;100461.91;4974026;28;97096;-46
2023/04/25 03:36:49;;;;;;;5.77;2.10;;;;;;;10.02;60.62;100475.38;4976034;28;97326;-49
2023/04/25 03:39:15;;;;;;;6.10;1.70;;;;;;;9.97;60.67;100479.59;4976785;28;96988;-49
2023/04/25 03:41:40;;;;;;;7.93;2.53;;;;;;;9.93;60.73;100483.81;4975446;28;97854;-49
2023/04/25 03:44:06;;;;;;;4.53;2.27;;;;;;;9.91;60.59;100484.31;4978678;28;97172;-49
2023/04/25 03:46:31;;;;;;;3.33;1.90;;;;;;;9.86;60.57;100482.28;4976347;28;96737;-48
2023/04/25 03:48:56;;;;;;;7.10;2.30;;;;;;;9.80;60.51;100487.00;4977366;28;97425;-49
2023/04/25 03:51:22;;;;;;;5.10;1.73;;;;;;;9.78;60.65;100492.97;4972855;28;105681;-50
2023/04/25 03:53:47;;;;;;;8.40;2.80;;;;;;;9.75;60.60;100504.19;4979872;28;97940;-48
2023/04/25 03:56:13;;;;;;;5.27;2.40;;;;;;;9.72;60.59;100499.66;4975201;28;97086;-49
2023/04/25 03:58:38;;;;;;;4.13;1.90;;;;;;;9.69;60.36;100503.41;4975459;28;97858;-49
2023/04/25 04:01:07;;;;;;;8.77;1.83;;;;;;;9.67;60.45;100516.88;4973913;28;97531;-49
2023/04/25 04:03:38;;;;;;;9.67;2.30;;;;;;;9.63;60.34;100514.34;4975791;28;97266;-50
2023/04/25 04:06:05;;;;;;;6.97;1.93;;;;;;;9.60;60.50;100520.84;4976530;28;96943;-50
2023/04/25 04:08:31;;;;;;;8.23;2.30;;;;;;;9.58;60.65;100525.31;4975615;28;97340;-49
2023/04/25 04:10:59;;;;;;;6.20;2.03;;;;;;;9.58;60.68;100528.06;4978808;28;99264;-48
2023/04/25 04:13:29;;;;;;;7.60;2.30;;;;;;;9.56;60.72;100528.56;4979353;28;97445;-50
2023/04/25 04:15:55;;;;;;;6.77;1.77;;;;;;;9.52;60.73;100528.00;4975623;28;97221;-50
2023/04/25 04:18:21;;;;;;;9.00;2.43;;;;;;;9.52;60.63;100530.00;4975873;28;96982;-50
2023/04/25 04:20:47;;;;;;;11.60;2.77;;;;;;;9.53;60.75;100532.25;4979273;28;97841;-49
2023/04/25 04:23:12;;;;;;;4.03;1.90;;;;;;;9.55;60.71;100531.75;4974620;28;98288;-48
2023/04/25 04:25:39;;;;;;;7.83;1.90;;;;;;;9.56;60.71;100541.53;4976601;28;100736;-49
2023/04/25 04:28:05;;;;;;;7.80;2.40;;;;;;;9.59;60.83;100537.78;4976474;28;96928;-49
2023/04/25 04:30:31;;;;;;;7.67;2.10;;;;;;;9.63;60.82;100547.31;4976538;28;97395;-50
2023/04/25 04:32:57;;;;;;;3.93;1.90;;;;;;;9.65;60.82;100546.84;4979256;28;97174;-49
2023/04/25 04:35:23;;;;;;;5.40;2.30;;;;;;;9.67;60.80;100547.88;4977913;28;96840;-49
2023/04/25 04:37:48;;;;;;;11.33;2.23;;;;;;;9.71;60.85;100545.63;4975147;28;97568;-49
2023/04/25 04:40:17;;;;;;;6.13;2.10;;;;;;;9.74;60.70;100549.41;4975208;28;97152;-50
2023/04/25 04:42:45;;;;;;;6.70;2.17;;;;;;;9.74;60.71;100554.91;4974502;28;97065;-47
2023/04/25 04:45:10;;;;;;;5.90;2.17;;;;;;;9.76;60.68;100549.66;4977006;28;96996;-50
2023/04/25 04:47:36;;;;;;;7.40;2.23;;;;;;;9.77;60.65;100548.41;4976173;28;96786;-50
2023/04/25 04:50:11;;;;;;;6.40;2.20;;;;;;;9.79;60.67;100548.69;4981124;28;97506;-49
2023/04/25 04:52:37;;;;;;;7.33;2.00;;;;;;;9.78;60.74;100556.16;4972862;28;97242;-49
2023/04/25 04:55:04;;;;;;;7.73;2.43;;;;;;;9.78;60.70;100553.41;4976917;28;96741;-50
2023/04/25 04:57:29;;;;;;;5.83;2.07;;;;;;;9.77;60.79;100551.91;4975284;28;97081;-47
2023/04/25 04:59:55;;;;;;;4.40;2.17;;;;;;;9.80;60.82;100555.69;4975658;28;97371;-47
2023/04/25 05:02:20;;;;;;;11.03;2.60;;;;;;;9.76;60.75;100560.66;4975897;28;97919;-50
2023/04/25 05:04:46;;;;;;;8.70;2.47;;;;;;;9.71;60.86;100559.38;4977307;28;97112;-49
2023/04/25 05:07:12;;;;;;;6.57;2.40;;;;;;;9.72;60.75;100551.88;4973844;28;96803;-48
2023/04/25 05:09:37;;;;;;;11.00;2.27;;;;;;;9.73;60.84;100559.63;4974183;28;96642;-50
2023/04/25 05:12:02;;;;;;;6.33;2.40;;;;;;;9.75;60.91;100564.63;4975149;28;104680;-48
2023/04/25 05:14:28;;;;;;;7.67;2.37;;;;;;;9.78;60.83;100569.16;4975640;28;97426;-49
2023/04/25 05:16:53;;;;;;;9.90;2.50;;;;;;;9.85;60.91;100568.69;4974590;28;96733;-50
2023/04/25 05:19:18;;;;;;;11.10;2.20;;;;;;;9.92;60.86;100568.25;4977950;28;97305;-50
2023/04/25 05:21:44;;;;;;;7.07;2.30;;;;;;;9.99;60.67;100569.78;4979019;28;111518;-50
2023/04/25 05:24:09;;;;;;;5.60;2.60;;;;;;;10.04;60.61;100575.34;4975283;28;96734;-49
2023/04/25 05:26:34;;;;;;;6.67;1.80;;;;;;;10.06;60.64;100574.84;4976989;28;96916;-50
2023/04/25 05:29:00;;;;;;;11.67;2.43;;;;;;;10.06;60.57;100586.59;4972687;28;97582;-49
2023/04/25 05:31:26;;;;;;;12.17;2.63;;;;;;;10.10;60.58;100578.88;4978085;28;97203;-50
2023/04/25 05:33:51;;;;;;;7.40;2.27;;;;;;;10.14;60.61;100604.16;4973260;28;96766;-49
2023/04/25 05:36:19;;;;;;;7.20;2.40;;;;;;;10.19;60.71;100606.19;4975593;28;96822;-49
2023/04/25 05:38:44;;;;;;;4.50;2.23;;;;;;;10.22;60.63;100585.22;4975616;28;97277;-49
2023/04/25 05:41:10;;;;;;;9.33;1.93;;;;;;;10.26;60.55;100597.50;4975226;28;96765;-50
2023/04/25 05:43:35;;;;;;;10.27;2.00;;;;;;;10.29;60.34;100599.25;4978393;28;97198;-49
2023/04/25 05:46:01;;;;;;;7.97;2.37;;;;;;;10.29;60.41;100610.25;4977696;28;98700;-50
2023/04/25 05:48:26;;;;;;;6.13;1.97;;;;;;;10.32;60.60;100605.78;4975318;28;97607;-50
2023/04/25 05:50:51;;;;;;;3.53;2.00;;;;;;;10.34;60.53;100595.03;4977709;28;97214;-48
2023/04/25 05:53:18;;;;;;;11.73;2.17;;;;;;;10.36;60.45;100607.03;4975387;28;96620;-49
2023/04/25 05:55:43;;;;;;;6.83;1.70;;;;;;;10.37;60.45;100611.31;4977044;28;97539;-50
2023/04/25 05:58:08;;;;;;;11.87;2.50;;;;;;;10.42;60.38;100616.06;4973236;28;97677;-47
2023/04/25 06:00:34;;;;;;;8.77;2.30;;;;;;;10.45;60.35;100626.09;4975125;28;103602;-47
2023/04/25 06:02:59;;;;;;;5.97;2.00;;;;;;;10.45;60.35;100626.09;4975031;28;96754;-49
2023/04/25 06:05:25;;;;;;;13.30;2.73;;;;;;;10.48;60.35;100629.88;4976414;28;96874;-49
2023/04/25 06:07:50;;;;;;;6.13;2.40;;;;;;;10.51;60.21;100635.13;4977412;28;97809;-49
2023/04/25 06:10:15;;;;;;;8.50;2.40;;;;;;;10.56;60.14;100630.91;4973975;28;96795;-50
2023/04/25 06:12:41;;;;;;;6.40;1.80;;;;;;;10.63;60.23;100632.44;4977867;28;96912;-50
2023/04/25 06:15:07;;;;;;;7.50;2.00;;;;;;;10.67;60.07;100630.19;4974159;28;97187;-48
2023/04/25 06:17:33;;;;;;;8.13;2.53;;;;;;;10.67;60.02;100641.97;4974806;28;97180;-49
2023/04/25 06:19:58;;;;;;;6.07;1.90;;;;;;;10.73;60.09;100650.25;4975189;28;98103;-50
2023/04/25 06:22:24;;;;;;;6.43;1.90;;;;;;;10.77;59.97;100645.28;4976108;28;97245;-49
2023/04/25 06:24:49;;;;;;;6.43;1.93;;;;;;;10.82;59.85;100645.28;4973709;28;96792;-49
2023/04/25 06:27:14;;;;;;;5.10;1.83;;;;;;;10.85;59.93;100652.56;4975715;28;97254;-49
2023/04/25 06:29:40;;;;;;;8.00;1.93;;;;;;;10.88;59.72;100657.06;4974421;28;100668;-49
2023/04/25 06:32:05;;;;;;;10.77;2.20;;;;;;;10.92;59.61;100656.84;4976288;28;96745;-47
2023/04/25 06:34:31;;;;;;;3.30;1.53;;;;;;;10.95;59.77;100655.84;4975280;28;97087;-49
2023/04/25 06:36:56;;;;;;;7.70;1.67;;;;;;;10.98;59.51;100658.38;4973677;28;97172;-50
2023/04/25 06:39:23;;;;;;;9.03;2.00;;;;;;;10.98;59.48;100658.38;4974659;28;96758;-48
2023/04/25 06:41:48;;;;;;;4.00;1.73;;;;;;;10.95;59.40;100656.59;4978584;28;96988;-49
2023/04/25 06:44:15;;;;;;;8.70;1.90;;;;;;;10.94;59.14;100662.63;4976112;28;97326;-48
2023/04/25 06:46:40;;;;;;;4.30;1.50;;;;;;;10.94;59.27;100659.88;4972859;28;97186;-49
2023/04/25 06:49:05;;;;;;;8.90;2.10;;;;;;;10.97;59.40;100654.09;4973721;28;97346;-49
2023/04/25 06:51:31;;;;;;;7.80;1.90;;;;;;;11.00;59.30;100653.13;4975054;28;96994;-49
2023/04/25 06:53:56;;;;;;;7.63;1.70;;;;;;;11.08;59.11;100658.91;4973692;28;96758;-49
2023/04/25 06:56:23;;;;;;;4.90;2.17;;;;;;;11.14;59.07;100660.44;4975164;28;98933;-49
2023/04/25 06:58:48;;;;;;;6.00;2.27;;;;;;;11.23;58.91;100664.97;4975189;28;97145;-48
2023/04/25 07:01:14;;;;;;;4.60;1.73;;;;;;;11.29;58.93;100663.72;4972888;28;96984;-50
2023/04/25 07:03:39;;;;;;;10.73;1.93;;;;;;;11.23;58.64;100665.72;4975219;28;96895;-47
2023/04/25 07:06:04;;;;;;;6.27;1.60;;;;;;;11.22;58.62;100668.97;4972727;28;96936;-48
2023/04/25 07:08:30;;;;;;;7.50;1.70;;;;;;;11.28;58.60;100664.22;4976083;28;96908;-50
2023/04/25 07:10:55;;;;;;;9.60;1.80;;;;;;;11.29;58.70;100680.25;4978689;28;97051;-50
2023/04/25 07:13:21;;;;;;;8.37;1.83;;;;;;;11.33;58.52;100680.03;4976321;28;97006;-48
2023/04/25 07:15:47;;;;;;;4.50;2.10;;;;;;;11.35;58.60;100669.25;4979483;28;106294;-49
2023/04/25 07:18:13;;;;;;;6.13;2.10;;;;;;;11.36;58.50;100676.25;4978319;28;97138;-49
2023/04/25 07:20:38;;;;;;;7.10;1.50;;;;;;;11.36;58.38;100673.50;4976056;28;96665;-47
2023/04/25 07:23:04;;;;;;;7.00;1.90;;;;;;;11.31;58.34;100683.25;4980228;28;97210;-49
2023/04/25 07:25:30;;;;;;;11.10;2.33;;;;;;;11.31;58.42;100680.50;4977944;28;97023;-50
2023/04/25 07:27:56;;;;;;;5.77;1.80;;;;;;;11.29;58.48;100683.00;4978769;28;97118;-49
2023/04/25 07:30:22;;;;;;;10.27;2.43;;;;;;;11.31;58.31;100694.28;4980505;28;97093;-49
2023/04/25 07:32:48;;;;;;;4.77;1.50;;;;;;;11.34;58.10;100681.50;4975070;28;97039;-48
2023/04/25 07:35:13;;;;;;;4.60;1.63;;;;;;;11.50;58.27;100694.59;4974913;28;97089;-47
2023/04/25 07:37:39;;;;;;;5.97;2.17;;;;;;;11.59;57.94;100686.09;4977564;28;96985;-50
2023/04/25 07:40:05;;;;;;;3.33;1.67;;;;;;;11.69;57.43;100686.63;4975899;28;96935;-49
2023/04/25 07:42:30;;;;;;;10.40;2.20;;;;;;;11.69;57.31;100690.16;4977930;28;97665;-50
2023/04/25 07:44:56;;;;;;;6.10;1.87;;;;;;;11.85;57.29;100691.41;4974221;28;97286;-50
2023/04/25 07:47:21;;;;;;;6.30;2.00;;;;;;;11.96;56.86;100694.94;4973699;28;97211;-50
2023/04/25 07:49:47;;;;;;;10.30;2.47;;;;;;;11.95;56.81;100703.69;4978845;28;97438;-49
2023/04/25 07:52:12;;;;;;;9.20;1.70;;;;;;;11.99;56.96;100704.22;4975833;28;97297;-50
2023/04/25 07:54:37;;;;;;;8.47;1.60;;;;;;;12.15;56.88;100705.47;4977490;28;96698;-50
2023/04/25 07:57:03;;;;;;;2.40;1.17;;;;;;;12.22;56.43;100707.72;4977707;28;97604;-48
2023/04/25 07:59:29;;;;;;;9.40;1.63;;;;;;;12.16;56.27;100707.75;4977877;28;96685;-49
2023/04/25 08:01:54;;;;;;;7.27;1.70;;;;;;;12.22;56.12;100719.50;4975157;28;97170;-52
2023/04/25 08:04:20;;;;;;;7.50;1.40;;;;;;;12.32;55.87;100712.47;4974767;28;98325;-50
2023/04/25 08:06:46;;;;;;;4.47;1.40;;;;;;;12.46;55.66;100707.97;4976332;28;97161;-48
2023/04/25 08:09:11;;;;;;;2.70;1.40;;;;;;;12.48;55.23;100706.19;4971276;28;98182;-49
2023/04/25 08:11:37;;;;;;;3.37;1.00;;;;;;;12.53;55.38;100715.72;4975946;28;99248;-51
2023/04/25 08:14:02;;;;;;;1.93;0.80;;;;;;;12.54;55.13;100712.47;4976970;28;96875;-50
2023/04/25 08:16:28;;;;;;;5.93;1.10;;;;;;;12.54;54.91;100733.78;4976604;28;96991;-50
2023/04/25 08:18:53;;;;;;;4.20;1.37;;;;;;;12.54;54.34;100717.22;4974014;28;96781;-50
2023/04/25 08:21:19;;;;;;;5.07;1.50;;;;;;;12.39;54.19;100730.53;4975171;28;97228;-50
2023/04/25 08:23:44;;;;;;;4.77;1.10;;;;;;;12.26;54.40;100731.03;4974748;28;97463;-50
2023/04/25 08:26:10;;;;;;;2.77;1.33;;;;;;;12.23;54.79;100740.31;4975908;28;96940;-49
2023/04/25 08:28:35;;;;;;;4.10;1.37;;;;;;;12.14;54.54;100729.56;4977066;28;100997;-50
2023/04/25 08:31:00;;;;;;;4.07;1.13;;;;;;;12.04;54.10;100742.81;4975639;28;96975;-50
2023/04/25 08:33:26;;;;;;;5.53;1.23;;;;;;;11.92;53.92;100737.81;4975877;28;96922;-50
2023/04/25 08:35:51;;;;;;;4.83;1.50;;;;;;;11.93;54.47;100745.56;4977468;28;97541;-50
2023/04/25 08:38:17;;;;;;;5.50;1.20;;;;;;;11.99;54.52;100740.81;4979014;28;97001;-48
2023/04/25 08:40:43;;;;;;;3.73;1.10;;;;;;;12.04;54.48;100728.28;4976993;28;97038;-50
2023/04/25 08:43:14;;;;;;;5.37;1.60;;;;;;;12.14;54.35;100739.81;4974972;28;97467;-47
2023/04/25 08:45:41;;;;;;;4.27;1.10;;;;;;;12.23;54.28;100745.81;4973980;28;97152;-48
2023/04/25 08:48:12;;;;;;;1.50;1.00;;;;;;;12.36;53.32;100751.59;4975767;28;96734;-50
2023/04/25 08:50:42;;;;;;;5.77;1.60;;;;;;;12.46;53.36;100772.19;4976075;28;97205;-50
2023/04/25 08:53:10;;;;;;;4.97;1.30;;;;;;;12.56;52.65;100762.38;4975485;28;97083;-50
2023/04/25 08:55:39;;;;;;;4.30;1.40;;;;;;;12.67;52.88;100762.38;4975832;28;97070;-48
2023/04/25 08:58:05;;;;;;;5.63;1.80;;;;;;;12.88;52.82;100756.56;4977663;28;96966;-49
2023/04/25 09:00:30;;;;;;;5.00;0.90;;;;;;;13.11;53.02;100769.09;4974867;28;97215;-50
2023/04/25 09:02:58;;;;;;;4.07;1.00;;;;;;;13.29;52.78;100779.59;4974130;28;97114;-49
2023/04/25 09:05:23;;;;;;;3.20;1.23;;;;;;;13.46;52.58;100780.28;4978083;28;97030;-50
2023/04/25 09:07:49;;;;;;;1.93;1.17;;;;;;;13.78;52.71;100759.25;4975223;28;96738;-50
2023/04/25 09:10:14;;;;;;;1.50;1.10;;;;;;;14.04;52.07;100761.63;4976265;28;97133;-50
2023/04/25 09:12:40;;;;;;;5.50;1.47;;;;;;;14.13;51.82;100767.56;4978346;28;97181;-50
2023/04/25 09:15:11;;;;;;;1.90;1.30;;;;;;;13.96;50.79;100777.25;4975340;28;97179;-49
2023/04/25 09:17:40;;;;;;;1.70;0.97;;;;;;;13.93;51.57;100783.81;4975501;28;97124;-50
2023/04/25 09:20:10;;;;;;;1.63;0.87;;;;;;;13.92;51.54;100785.81;4974562;28;97367;-49
2023/04/25 09:22:37;;;;;;;1.57;0.90;;;;;;;14.13;51.61;100797.28;4974216;28;97033;-50
2023/04/25 09:25:11;;;;;;;1.90;1.30;;;;;;;14.28;49.41;100787.31;4975876;28;96821;-50
2023/04/25 09:27:36;;;;;;;2.03;0.90;;;;;;;14.15;50.32;100791.97;4978658;28;99002;-50
2023/04/25 09:30:02;;;;;;;2.27;1.20;;;;;;;13.76;50.17;100794.94;4977872;28;97878;-50
2023/04/25 09:32:28;;;;;;;7.73;1.63;;;;;;;13.62;50.68;100811.88;4978276;28;96776;-49
2023/04/25 09:34:55;;;;;;;2.37;1.10;;;;;;;13.52;50.93;100816.94;4977560;28;97084;-49
2023/04/25 09:37:24;;;;;;;3.10;0.90;;;;;;;13.55;51.15;100815.91;4980841;28;97381;-50
2023/04/25 09:39:56;;;;;;;2.20;1.30;;;;;;;13.59;50.63;100830.22;4980483;28;96932;-50
2023/04/25 09:42:26;;;;;;;4.60;1.00;;;;;;;13.57;50.91;100821.69;4975937;28;97105;-50
2023/04/25 09:44:53;;;;;;;1.83;0.90;;;;;;;13.60;50.96;100817.16;4973849;28;97283;-48
2023/04/25 09:47:21;;;;;;;2.40;1.07;;;;;;;13.84;51.44;100822.84;4977470;28;97519;-50
2023/04/25 09:49:47;;;;;;;3.97;1.50;;;;;;;14.21;50.82;100826.66;4977583;28;96810;-49
2023/04/25 09:52:18;;;;;;;7.73;1.20;;;;;;;14.19;49.97;100823.66;4975835;28;97015;-49
2023/04/25 09:54:45;;;;;;;1.73;1.00;;;;;;;14.03;50.25;100832.78;4978597;28;97428;-50
2023/04/25 09:57:21;;;;;;;3.50;1.33;;;;;;;13.76;48.92;100836.44;4976323;28;96952;-50
2023/04/25 09:59:52;;;;;;;2.97;1.43;;;;;;;13.43;50.25;100833.81;4974174;28;97213;-49
2023/04/25 10:02:24;;;;;;;3.43;0.83;;;;;;;13.21;50.71;100845.69;4974467;28;97694;-50
2023/04/25 10:04:54;;;;;;;3.13;1.07;;;;;;;12.97;50.82;100852.97;4975480;28;97157;-51
2023/04/25 10:07:28;;;;;;;1.43;0.83;;;;;;;12.79;51.23;100863.28;4975843;28;97148;-50
2023/04/25 10:10:02;;;;;;;5.73;0.90;;;;;;;12.55;51.04;100871.28;4975908;28;97070;-48
2023/04/25 10:12:28;;;;;;;2.50;1.60;;;;;;;12.43;51.55;100867.00;4972588;28;97055;-50
2023/04/25 10:14:54;;;;;;;2.60;0.83;;;;;;;12.31;51.85;100878.50;4971476;28;98340;-49
2023/04/25 10:17:20;;;;;;;2.07;0.90;;;;;;;12.21;52.17;100877.97;4974193;28;96683;-50
2023/04/25 10:19:49;;;;;;;1.90;0.80;;;;;;;12.20;52.44;100882.00;4975419;28;97016;-50
2023/04/25 10:22:20;;;;;;;3.10;0.90;;;;;;;12.23;51.71;100888.53;4975561;28;96768;-49
2023/04/25 10:24:46;;;;;;;4.50;0.70;;;;;;;12.15;52.20;100901.28;4974324;28;97227;-50
2023/04/25 10:27:12;;;;;;;1.60;1.23;;;;;;;12.20;52.25;100892.28;4975123;28;97197;-50
2023/04/25 10:29:37;;;;;;;2.27;0.90;;;;;;;12.38;52.52;100886.31;4977088;28;97150;-49
2023/04/25 10:32:03;;;;;;;2.00;0.57;;;;;;;12.51;52.20;100883.81;4973483;28;97332;-49
2023/04/25 10:34:40;;;;;;;1.50;0.60;;;;;;;12.70;52.09;100884.84;4975733;28;96824;-50
2023/04/25 10:37:09;;;;;;;4.57;1.20;;;;;;;12.82;51.74;100878.06;4974790;28;96880;-49
2023/04/25 10:39:34;;;;;;;1.40;1.00;;;;;;;12.94;51.74;100881.56;4974110;28;97107;-50
2023/04/25 10:42:02;;;;;;;2.20;0.60;;;;;;;13.07;51.73;100882.59;4975159;28;97817;-50
2023/04/25 10:44:31;;;;;;;1.70;0.83;;;;;;;13.32;51.28;100878.78;4976418;28;97082;-50
2023/04/25 10:47:00;;;;;;;2.80;0.90;;;;;;;13.51;51.29;100888.06;4978278;28;97209;-49
2023/04/25 10:49:35;;;;;;;1.60;0.90;;;;;;;13.69;50.72;100888.75;4979144;28;97031;-49
2023/04/25 10:52:29;;;;;;;4.27;0.67;;;;;;;14.04;48.16;100889.59;4977510;28;96742;-50
2023/04/25 10:54:57;;;;;;;2.53;0.80;;;;;;;14.37;49.76;100885.97;4978995;28;96850;-50
2023/04/25 10:57:31;;;;;;;3.30;0.77;;;;;;;14.48;49.09;100882.38;4978204;28;97288;-48
2023/04/25 11:00:14;;;;;;;3.60;1.10;;;;;;;14.63;49.18;100874.44;4975920;28;96858;-48
2023/04/25 11:02:50;;;;;;;2.30;0.90;;;;;;;14.81;48.40;100876.56;4977446;28;97560;-50
2023/04/25 11:05:22;;;;;;;1.20;0.70;;;;;;;14.90;48.79;100870.69;4977015;28;97445;-50
2023/04/25 11:07:57;;;;;;;0.90;0.60;;;;;;;14.90;47.99;100876.22;4976752;28;97049;-50
2023/04/25 11:10:27;;;;;;;0.80;0.80;;;;;;;14.80;48.34;100889.69;4977376;28;96623;-48
2023/04/25 11:12:53;;;;;;;1.73;0.87;;;;;;;14.65;49.19;100880.97;4978134;28;96969;-50
2023/04/25 11:15:18;;;;;;;2.53;0.93;;;;;;;14.57;48.89;100884.81;4979299;28;97287;-50
2023/04/25 11:17:46;;;;;;;2.70;0.70;;;;;;;14.54;48.81;100888.59;4975072;28;96749;-49
2023/04/25 11:20:13;;;;;;;2.20;0.60;;;;;;;14.54;48.76;100888.59;4979338;28;98111;-50